sensor_id;sensor_type;location;lat;lon;timestamp;temperature;humidity
26599;DHT22;14240;51.064;16.612;2023-02-07T00:02:00;-3.20;99.90
26599;DHT22;14240;51.064;16.612;2023-02-07T00:04:26;-3.20;99.90
26599;DHT22;14240;51.064;16.612;2023-02-07T00:06:52;-3.30;99.90
26599;DHT22;14240;51.064;16.612;2023-02-07T00:09:17;-3.30;99.90
26599;DHT22;14240;51.064;16.612;2023-02-07T00:11:43;-3.30;99.90
26599;DHT22;14240;51.064;16.612;2023-02-07T00:14:11;-3.30;99.90
26599;DHT22;14240;51.064;16.612;2023-02-07T00:16:38;-3.40;99.90
26599;DHT22;14240;51.064;16.612;2023-02-07T00:19:04;-3.40;99.90
26599;DHT22;14240;51.064;16.612;2023-02-07T00:21:30;-3.40;99.90
26599;DHT22;14240;51.064;16.612;2023-02-07T00:23:56;-3.40;99.90
26599;DHT22;14240;51.064;16.612;2023-02-07T00:26:23;-3.50;99.90
26599;DHT22;14240;51.064;16.612;2023-02-07T00:28:51;-3.40;99.90
26599;DHT22;14240;51.064;16.612;2023-02-07T00:31:21;-3.50;99.90
26599;DHT22;14240;51.064;16.612;2023-02-07T00:33:49;-3.50;99.90
26599;DHT22;14240;51.064;16.612;2023-02-07T00:36:18;-3.60;99.90
26599;DHT22;14240;51.064;16.612;2023-02-07T00:38:45;-3.60;99.90
26599;DHT22;14240;51.064;16.612;2023-02-07T00:41:11;-3.60;99.90
26599;DHT22;14240;51.064;16.612;2023-02-07T00:43:44;-3.70;99.90
26599;DHT22;14240;51.064;16.612;2023-02-07T00:46:10;-3.70;99.90
26599;DHT22;14240;51.064;16.612;2023-02-07T00:48:37;-3.70;99.90
26599;DHT22;14240;51.064;16.612;2023-02-07T00:51:04;-3.70;99.90
26599;DHT22;14240;51.064;16.612;2023-02-07T00:53:30;-3.70;99.90
26599;DHT22;14240;51.064;16.612;2023-02-07T00:55:56;-3.80;99.90
26599;DHT22;14240;51.064;16.612;2023-02-07T00:58:22;-3.80;99.90
26599;DHT22;14240;51.064;16.612;2023-02-07T01:00:48;-3.80;99.90
26599;DHT22;14240;51.064;16.612;2023-02-07T01:03:14;-3.80;99.90
26599;DHT22;14240;51.064;16.612;2023-02-07T01:05:40;-3.80;99.90
26599;DHT22;14240;51.064;16.612;2023-02-07T01:08:06;-3.80;99.90
26599;DHT22;14240;51.064;16.612;2023-02-07T01:10:31;-3.70;99.90
26599;DHT22;14240;51.064;16.612;2023-02-07T01:12:57;-3.80;99.90
26599;DHT22;14240;51.064;16.612;2023-02-07T01:15:23;-3.80;99.90
26599;DHT22;14240;51.064;16.612;2023-02-07T01:17:49;-3.80;99.90
26599;DHT22;14240;51.064;16.612;2023-02-07T01:20:15;-3.80;99.90
26599;DHT22;14240;51.064;16.612;2023-02-07T01:22:41;-3.80;99.90
26599;DHT22;14240;51.064;16.612;2023-02-07T01:25:07;-3.80;99.90
26599;DHT22;14240;51.064;16.612;2023-02-07T01:27:34;-3.80;99.90
26599;DHT22;14240;51.064;16.612;2023-02-07T01:30:00;-3.80;99.90
26599;DHT22;14240;51.064;16.612;2023-02-07T01:32:26;-3.80;99.90
26599;DHT22;14240;51.064;16.612;2023-02-07T01:34:52;-3.80;99.90
26599;DHT22;14240;51.064;16.612;2023-02-07T01:37:18;-3.80;99.90
26599;DHT22;14240;51.064;16.612;2023-02-07T01:39:45;-3.80;99.90
26599;DHT22;14240;51.064;16.612;2023-02-07T01:42:15;-3.80;99.90
26599;DHT22;14240;51.064;16.612;2023-02-07T01:47:25;-3.80;99.90
26599;DHT22;14240;51.064;16.612;2023-02-07T01:49:54;-3.80;99.90
26599;DHT22;14240;51.064;16.612;2023-02-07T01:52:31;-3.80;99.90
26599;DHT22;14240;51.064;16.612;2023-02-07T01:55:03;-3.90;99.90
26599;DHT22;14240;51.064;16.612;2023-02-07T01:57:31;-3.90;99.90
26599;DHT22;14240;51.064;16.612;2023-02-07T01:59:57;-3.90;99.90
26599;DHT22;14240;51.064;16.612;2023-02-07T02:02:27;-3.90;99.90
26599;DHT22;14240;51.064;16.612;2023-02-07T02:04:54;-3.90;99.90
26599;DHT22;14240;51.064;16.612;2023-02-07T02:07:21;-3.90;99.90
26599;DHT22;14240;51.064;16.612;2023-02-07T02:09:47;-3.90;99.90
26599;DHT22;14240;51.064;16.612;2023-02-07T02:26:14;-4.00;99.90
26599;DHT22;14240;51.064;16.612;2023-02-07T02:31:36;-3.90;99.90
26599;DHT22;14240;51.064;16.612;2023-02-07T02:37:06;-4.00;99.90
26599;DHT22;14240;51.064;16.612;2023-02-07T02:42:33;-4.00;99.90
26599;DHT22;14240;51.064;16.612;2023-02-07T02:45:15;-4.00;99.90
26599;DHT22;14240;51.064;16.612;2023-02-07T02:47:44;-4.00;99.90
26599;DHT22;14240;51.064;16.612;2023-02-07T02:50:18;-4.00;99.90
26599;DHT22;14240;51.064;16.612;2023-02-07T02:52:44;-4.00;99.90
26599;DHT22;14240;51.064;16.612;2023-02-07T02:55:10;-4.00;99.90
26599;DHT22;14240;51.064;16.612;2023-02-07T02:58:03;-4.00;99.90
26599;DHT22;14240;51.064;16.612;2023-02-07T03:03:32;-4.00;99.90
26599;DHT22;14240;51.064;16.612;2023-02-07T03:17:42;-4.00;99.90
26599;DHT22;14240;51.064;16.612;2023-02-07T03:20:22;-4.10;99.90
26599;DHT22;14240;51.064;16.612;2023-02-07T03:22:51;-4.10;99.90
26599;DHT22;14240;51.064;16.612;2023-02-07T03:25:19;-4.10;99.90
26599;DHT22;14240;51.064;16.612;2023-02-07T03:27:46;-4.10;99.90
26599;DHT22;14240;51.064;16.612;2023-02-07T03:30:14;-4.10;99.90
26599;DHT22;14240;51.064;16.612;2023-02-07T03:32:45;-4.10;99.90
26599;DHT22;14240;51.064;16.612;2023-02-07T03:35:26;-4.10;99.90
26599;DHT22;14240;51.064;16.612;2023-02-07T03:37:58;-4.10;99.90
26599;DHT22;14240;51.064;16.612;2023-02-07T03:40:28;-4.10;99.90
26599;DHT22;14240;51.064;16.612;2023-02-07T03:43:07;-4.20;99.90
26599;DHT22;14240;51.064;16.612;2023-02-07T03:45:34;-4.20;99.90
26599;DHT22;14240;51.064;16.612;2023-02-07T03:48:00;-4.20;99.90
26599;DHT22;14240;51.064;16.612;2023-02-07T03:50:26;-4.20;99.90
26599;DHT22;14240;51.064;16.612;2023-02-07T03:52:52;-4.20;99.90
26599;DHT22;14240;51.064;16.612;2023-02-07T03:55:18;-4.20;99.90
26599;DHT22;14240;51.064;16.612;2023-02-07T03:57:43;-4.20;99.90
26599;DHT22;14240;51.064;16.612;2023-02-07T04:00:10;-4.30;99.90
26599;DHT22;14240;51.064;16.612;2023-02-07T04:02:36;-4.30;99.90
26599;DHT22;14240;51.064;16.612;2023-02-07T04:05:02;-4.30;99.90
26599;DHT22;14240;51.064;16.612;2023-02-07T04:07:28;-4.30;99.90
26599;DHT22;14240;51.064;16.612;2023-02-07T04:09:54;-4.30;99.90
26599;DHT22;14240;51.064;16.612;2023-02-07T04:12:20;-4.30;99.90
26599;DHT22;14240;51.064;16.612;2023-02-07T04:14:46;-4.40;99.90
26599;DHT22;14240;51.064;16.612;2023-02-07T04:17:11;-4.40;99.90
26599;DHT22;14240;51.064;16.612;2023-02-07T04:19:37;-4.40;99.90
26599;DHT22;14240;51.064;16.612;2023-02-07T04:22:03;-4.50;99.90
26599;DHT22;14240;51.064;16.612;2023-02-07T04:24:29;-4.50;99.90
26599;DHT22;14240;51.064;16.612;2023-02-07T04:26:58;-4.50;99.90
26599;DHT22;14240;51.064;16.612;2023-02-07T04:29:24;-4.50;99.90
26599;DHT22;14240;51.064;16.612;2023-02-07T04:31:49;-4.60;99.90
26599;DHT22;14240;51.064;16.612;2023-02-07T04:34:15;-4.60;99.90
26599;DHT22;14240;51.064;16.612;2023-02-07T04:36:41;-4.60;99.90
26599;DHT22;14240;51.064;16.612;2023-02-07T04:39:07;-4.60;99.90
26599;DHT22;14240;51.064;16.612;2023-02-07T04:41:32;-4.60;99.90
26599;DHT22;14240;51.064;16.612;2023-02-07T04:43:58;-4.60;99.90
26599;DHT22;14240;51.064;16.612;2023-02-07T04:46:24;-4.70;99.90
26599;DHT22;14240;51.064;16.612;2023-02-07T04:48:50;-4.70;99.90
26599;DHT22;14240;51.064;16.612;2023-02-07T04:51:15;-4.70;99.90
26599;DHT22;14240;51.064;16.612;2023-02-07T04:53:41;-4.70;99.90
26599;DHT22;14240;51.064;16.612;2023-02-07T04:56:07;-4.70;99.90
26599;DHT22;14240;51.064;16.612;2023-02-07T04:58:33;-4.70;99.90
26599;DHT22;14240;51.064;16.612;2023-02-07T05:00:59;-4.70;99.90
26599;DHT22;14240;51.064;16.612;2023-02-07T05:03:24;-4.70;99.90
26599;DHT22;14240;51.064;16.612;2023-02-07T05:05:52;-4.70;99.90
26599;DHT22;14240;51.064;16.612;2023-02-07T05:08:18;-4.80;99.90
26599;DHT22;14240;51.064;16.612;2023-02-07T05:10:45;-4.70;99.90
26599;DHT22;14240;51.064;16.612;2023-02-07T05:13:11;-4.80;99.90
26599;DHT22;14240;51.064;16.612;2023-02-07T05:15:37;-4.70;99.90
26599;DHT22;14240;51.064;16.612;2023-02-07T05:18:02;-4.80;99.90
26599;DHT22;14240;51.064;16.612;2023-02-07T05:20:29;-4.70;99.90
26599;DHT22;14240;51.064;16.612;2023-02-07T05:22:55;-4.80;99.90
26599;DHT22;14240;51.064;16.612;2023-02-07T05:25:20;-4.80;99.90
26599;DHT22;14240;51.064;16.612;2023-02-07T05:27:46;-4.80;99.90
26599;DHT22;14240;51.064;16.612;2023-02-07T05:30:12;-4.80;99.90
26599;DHT22;14240;51.064;16.612;2023-02-07T05:32:38;-4.80;99.90
26599;DHT22;14240;51.064;16.612;2023-02-07T05:35:22;-4.80;99.90
26599;DHT22;14240;51.064;16.612;2023-02-07T05:37:48;-4.80;99.90
26599;DHT22;14240;51.064;16.612;2023-02-07T05:40:14;-4.80;99.90
26599;DHT22;14240;51.064;16.612;2023-02-07T05:42:39;-4.70;99.90
26599;DHT22;14240;51.064;16.612;2023-02-07T05:45:08;-4.70;99.90
26599;DHT22;14240;51.064;16.612;2023-02-07T05:47:34;-4.70;99.90
26599;DHT22;14240;51.064;16.612;2023-02-07T05:50:00;-4.80;99.90
26599;DHT22;14240;51.064;16.612;2023-02-07T05:52:26;-4.80;99.90
26599;DHT22;14240;51.064;16.612;2023-02-07T05:54:52;-4.70;99.90
26599;DHT22;14240;51.064;16.612;2023-02-07T05:57:18;-4.80;99.90
26599;DHT22;14240;51.064;16.612;2023-02-07T05:59:43;-4.70;99.90
26599;DHT22;14240;51.064;16.612;2023-02-07T06:02:09;-4.70;99.90
26599;DHT22;14240;51.064;16.612;2023-02-07T06:04:35;-4.70;99.90
26599;DHT22;14240;51.064;16.612;2023-02-07T06:07:01;-4.70;99.90
26599;DHT22;14240;51.064;16.612;2023-02-07T06:09:26;-4.70;99.90
26599;DHT22;14240;51.064;16.612;2023-02-07T06:11:52;-4.70;99.90
26599;DHT22;14240;51.064;16.612;2023-02-07T06:14:20;-4.70;99.90
26599;DHT22;14240;51.064;16.612;2023-02-07T06:18:16;-4.70;99.90
26599;DHT22;14240;51.064;16.612;2023-02-07T06:20:42;-4.70;99.90
26599;DHT22;14240;51.064;16.612;2023-02-07T06:23:51;-4.70;99.90
26599;DHT22;14240;51.064;16.612;2023-02-07T06:26:17;-4.70;99.90
26599;DHT22;14240;51.064;16.612;2023-02-07T06:28:43;-4.70;99.90
26599;DHT22;14240;51.064;16.612;2023-02-07T06:31:09;-4.70;99.90
26599;DHT22;14240;51.064;16.612;2023-02-07T06:33:35;-4.70;99.90
26599;DHT22;14240;51.064;16.612;2023-02-07T06:36:01;-4.70;99.90
26599;DHT22;14240;51.064;16.612;2023-02-07T06:38:27;-4.70;99.90
26599;DHT22;14240;51.064;16.612;2023-02-07T06:40:53;-4.60;99.90
26599;DHT22;14240;51.064;16.612;2023-02-07T06:43:18;-4.60;99.90
26599;DHT22;14240;51.064;16.612;2023-02-07T06:45:44;-4.60;99.90
26599;DHT22;14240;51.064;16.612;2023-02-07T06:48:10;-4.60;99.90
26599;DHT22;14240;51.064;16.612;2023-02-07T06:50:36;-4.60;99.90
26599;DHT22;14240;51.064;16.612;2023-02-07T06:53:02;-4.60;99.90
26599;DHT22;14240;51.064;16.612;2023-02-07T06:55:34;-4.50;99.90
26599;DHT22;14240;51.064;16.612;2023-02-07T06:58:00;-4.50;99.90
26599;DHT22;14240;51.064;16.612;2023-02-07T07:00:26;-4.40;99.90
26599;DHT22;14240;51.064;16.612;2023-02-07T07:02:51;-5.20;99.90
26599;DHT22;14240;51.064;16.612;2023-02-07T07:05:18;-4.30;99.90
26599;DHT22;14240;51.064;16.612;2023-02-07T07:07:44;-4.10;99.90
26599;DHT22;14240;51.064;16.612;2023-02-07T07:10:10;-3.90;99.90
26599;DHT22;14240;51.064;16.612;2023-02-07T07:12:37;-3.70;99.90
26599;DHT22;14240;51.064;16.612;2023-02-07T07:15:03;-3.50;99.90
26599;DHT22;14240;51.064;16.612;2023-02-07T07:17:28;-3.20;99.90
26599;DHT22;14240;51.064;16.612;2023-02-07T07:19:54;-3.00;99.90
26599;DHT22;14240;51.064;16.612;2023-02-07T07:22:20;-2.90;99.90
26599;DHT22;14240;51.064;16.612;2023-02-07T07:24:46;-2.70;99.90
26599;DHT22;14240;51.064;16.612;2023-02-07T07:27:11;-2.60;99.90
26599;DHT22;14240;51.064;16.612;2023-02-07T07:29:37;-2.50;99.90
26599;DHT22;14240;51.064;16.612;2023-02-07T07:32:04;-2.40;99.90
26599;DHT22;14240;51.064;16.612;2023-02-07T07:34:30;-2.30;99.90
26599;DHT22;14240;51.064;16.612;2023-02-07T07:36:56;-2.20;99.90
26599;DHT22;14240;51.064;16.612;2023-02-07T07:39:24;-2.20;99.90
26599;DHT22;14240;51.064;16.612;2023-02-07T07:41:50;-2.10;99.90
26599;DHT22;14240;51.064;16.612;2023-02-07T07:44:15;-2.10;99.90
26599;DHT22;14240;51.064;16.612;2023-02-07T07:46:41;-2.10;99.90
26599;DHT22;14240;51.064;16.612;2023-02-07T07:49:07;-2.00;99.90
26599;DHT22;14240;51.064;16.612;2023-02-07T07:51:34;-1.90;99.90
26599;DHT22;14240;51.064;16.612;2023-02-07T07:54:00;-1.70;99.90
26599;DHT22;14240;51.064;16.612;2023-02-07T07:56:26;-1.40;99.90
26599;DHT22;14240;51.064;16.612;2023-02-07T07:58:57;-1.10;99.90
26599;DHT22;14240;51.064;16.612;2023-02-07T08:01:23;-0.90;99.90
26599;DHT22;14240;51.064;16.612;2023-02-07T08:03:48;-0.70;99.90
26599;DHT22;14240;51.064;16.612;2023-02-07T08:06:14;-0.50;99.90
26599;DHT22;14240;51.064;16.612;2023-02-07T08:08:40;-0.40;99.90
26599;DHT22;14240;51.064;16.612;2023-02-07T08:11:08;-0.20;99.90
26599;DHT22;14240;51.064;16.612;2023-02-07T08:13:35;0.00;99.90
26599;DHT22;14240;51.064;16.612;2023-02-07T08:16:01;0.10;99.90
26599;DHT22;14240;51.064;16.612;2023-02-07T08:18:28;0.20;99.90
26599;DHT22;14240;51.064;16.612;2023-02-07T08:20:54;0.60;99.90
26599;DHT22;14240;51.064;16.612;2023-02-07T08:23:20;1.10;99.90
26599;DHT22;14240;51.064;16.612;2023-02-07T08:25:46;1.40;99.90
26599;DHT22;14240;51.064;16.612;2023-02-07T08:28:12;1.70;99.90
26599;DHT22;14240;51.064;16.612;2023-02-07T08:30:38;2.00;99.90
26599;DHT22;14240;51.064;16.612;2023-02-07T08:33:04;2.30;99.90
26599;DHT22;14240;51.064;16.612;2023-02-07T08:35:30;2.70;99.90
26599;DHT22;14240;51.064;16.612;2023-02-07T08:37:57;3.10;99.90
26599;DHT22;14240;51.064;16.612;2023-02-07T08:40:23;3.50;99.90
26599;DHT22;14240;51.064;16.612;2023-02-07T08:42:49;3.90;99.90
26599;DHT22;14240;51.064;16.612;2023-02-07T08:45:15;4.20;99.90
26599;DHT22;14240;51.064;16.612;2023-02-07T08:47:43;4.40;99.90
26599;DHT22;14240;51.064;16.612;2023-02-07T08:50:11;4.60;99.90
26599;DHT22;14240;51.064;16.612;2023-02-07T08:52:36;4.90;99.90
26599;DHT22;14240;51.064;16.612;2023-02-07T08:55:02;5.10;99.90
26599;DHT22;14240;51.064;16.612;2023-02-07T08:57:28;5.30;99.90
26599;DHT22;14240;51.064;16.612;2023-02-07T08:59:54;5.70;99.90
26599;DHT22;14240;51.064;16.612;2023-02-07T09:02:20;6.10;99.90
26599;DHT22;14240;51.064;16.612;2023-02-07T09:04:46;6.70;99.90
26599;DHT22;14240;51.064;16.612;2023-02-07T09:07:12;7.50;99.90
26599;DHT22;14240;51.064;16.612;2023-02-07T09:09:38;8.10;99.90
26599;DHT22;14240;51.064;16.612;2023-02-07T09:12:05;8.60;99.90
26599;DHT22;14240;51.064;16.612;2023-02-07T09:14:31;9.20;99.90
26599;DHT22;14240;51.064;16.612;2023-02-07T09:16:57;10.00;99.90
26599;DHT22;14240;51.064;16.612;2023-02-07T09:19:22;10.70;99.90
26599;DHT22;14240;51.064;16.612;2023-02-07T09:21:48;11.40;99.10
26599;DHT22;14240;51.064;16.612;2023-02-07T09:24:14;11.90;97.90
26599;DHT22;14240;51.064;16.612;2023-02-07T09:26:39;12.30;96.50
26599;DHT22;14240;51.064;16.612;2023-02-07T09:29:06;12.70;95.50
26599;DHT22;14240;51.064;16.612;2023-02-07T09:31:33;13.20;94.80
26599;DHT22;14240;51.064;16.612;2023-02-07T09:33:59;13.70;93.20
26599;DHT22;14240;51.064;16.612;2023-02-07T09:36:27;14.10;92.40
26599;DHT22;14240;51.064;16.612;2023-02-07T09:38:54;14.60;91.10
26599;DHT22;14240;51.064;16.612;2023-02-07T09:44:27;15.50;86.80
26599;DHT22;14240;51.064;16.612;2023-02-07T09:47:08;15.70;84.10
26599;DHT22;14240;51.064;16.612;2023-02-07T09:50:15;15.90;83.50
26599;DHT22;14240;51.064;16.612;2023-02-07T09:52:58;16.30;81.30
26599;DHT22;14240;51.064;16.612;2023-02-07T09:55:30;16.60;79.70
26599;DHT22;14240;51.064;16.612;2023-02-07T09:58:06;16.90;76.70
26599;DHT22;14240;51.064;16.612;2023-02-07T10:00:35;17.00;75.70
26599;DHT22;14240;51.064;16.612;2023-02-07T10:03:16;17.20;73.30
26599;DHT22;14240;51.064;16.612;2023-02-07T10:06:06;17.20;71.40
26599;DHT22;14240;51.064;16.612;2023-02-07T10:08:32;17.30;69.80
26599;DHT22;14240;51.064;16.612;2023-02-07T10:22:53;16.40;64.80
26599;DHT22;14240;51.064;16.612;2023-02-07T10:25:41;15.80;66.10
26599;DHT22;14240;51.064;16.612;2023-02-07T10:30:45;14.10;68.20
26599;DHT22;14240;51.064;16.612;2023-02-07T10:33:17;13.40;69.00
26599;DHT22;14240;51.064;16.612;2023-02-07T10:35:44;12.80;69.80
26599;DHT22;14240;51.064;16.612;2023-02-07T10:38:29;12.30;70.10
26599;DHT22;14240;51.064;16.612;2023-02-07T10:41:16;11.80;70.90
26599;DHT22;14240;51.064;16.612;2023-02-07T10:43:45;11.50;71.80
26599;DHT22;14240;51.064;16.612;2023-02-07T10:46:14;11.10;72.30
26599;DHT22;14240;51.064;16.612;2023-02-07T10:48:40;10.70;73.10
26599;DHT22;14240;51.064;16.612;2023-02-07T10:54:15;10.00;74.30
26599;DHT22;14240;51.064;16.612;2023-02-07T10:56:58;9.80;74.80
26599;DHT22;14240;51.064;16.612;2023-02-07T10:59:37;9.60;75.80
26599;DHT22;14240;51.064;16.612;2023-02-07T11:04:59;9.10;76.30
26599;DHT22;14240;51.064;16.612;2023-02-07T11:07:26;8.80;76.70
26599;DHT22;14240;51.064;16.612;2023-02-07T11:10:14;8.60;76.80
26599;DHT22;14240;51.064;16.612;2023-02-07T11:12:45;8.30;76.80
26599;DHT22;14240;51.064;16.612;2023-02-07T11:15:19;8.10;77.90
26599;DHT22;14240;51.064;16.612;2023-02-07T11:17:50;8.00;78.30
26599;DHT22;14240;51.064;16.612;2023-02-07T11:22:56;7.60;79.20
26599;DHT22;14240;51.064;16.612;2023-02-07T11:25:45;7.50;79.50
26599;DHT22;14240;51.064;16.612;2023-02-07T11:30:50;7.00;80.30
26599;DHT22;14240;51.064;16.612;2023-02-07T11:33:20;7.00;81.60
26599;DHT22;14240;51.064;16.612;2023-02-07T11:38:49;6.90;82.00
26599;DHT22;14240;51.064;16.612;2023-02-07T11:41:23;6.90;82.60
26599;DHT22;14240;51.064;16.612;2023-02-07T11:46:32;6.80;82.70
26599;DHT22;14240;51.064;16.612;2023-02-07T11:48:58;6.70;83.20
26599;DHT22;14240;51.064;16.612;2023-02-07T11:51:24;6.70;83.30
26599;DHT22;14240;51.064;16.612;2023-02-07T11:53:56;6.70;83.30
26599;DHT22;14240;51.064;16.612;2023-02-07T11:56:29;6.60;82.80
26599;DHT22;14240;51.064;16.612;2023-02-07T11:58:56;6.50;83.10
26599;DHT22;14240;51.064;16.612;2023-02-07T12:01:27;6.40;83.70
26599;DHT22;14240;51.064;16.612;2023-02-07T12:03:58;6.40;84.20
26599;DHT22;14240;51.064;16.612;2023-02-07T12:06:39;6.30;84.30
26599;DHT22;14240;51.064;16.612;2023-02-07T12:11:55;6.20;84.60
26599;DHT22;14240;51.064;16.612;2023-02-07T12:14:40;6.10;84.90
26599;DHT22;14240;51.064;16.612;2023-02-07T12:17:20;6.10;85.20
26599;DHT22;14240;51.064;16.612;2023-02-07T12:20:03;6.10;85.60
26599;DHT22;14240;51.064;16.612;2023-02-07T12:22:49;6.00;85.40
26599;DHT22;14240;51.064;16.612;2023-02-07T12:25:22;5.90;85.70
26599;DHT22;14240;51.064;16.612;2023-02-07T12:27:50;5.90;86.00
26599;DHT22;14240;51.064;16.612;2023-02-07T12:30:41;5.90;86.50
26599;DHT22;14240;51.064;16.612;2023-02-07T12:33:43;5.80;86.70
26599;DHT22;14240;51.064;16.612;2023-02-07T12:39:35;5.70;87.20
26599;DHT22;14240;51.064;16.612;2023-02-07T12:41:45;5.60;87.50
26599;DHT22;14240;51.064;16.612;2023-02-07T12:44:28;5.50;87.90
26599;DHT22;14240;51.064;16.612;2023-02-07T12:52:27;5.40;88.90
26599;DHT22;14240;51.064;16.612;2023-02-07T12:57:23;5.30;89.30
26599;DHT22;14240;51.064;16.612;2023-02-07T13:03:07;5.30;89.40
26599;DHT22;14240;51.064;16.612;2023-02-07T13:16:50;5.10;89.50
26599;DHT22;14240;51.064;16.612;2023-02-07T13:19:33;5.10;89.60
26599;DHT22;14240;51.064;16.612;2023-02-07T13:22:08;5.00;89.50
26599;DHT22;14240;51.064;16.612;2023-02-07T13:24:40;4.90;89.30
26599;DHT22;14240;51.064;16.612;2023-02-07T13:27:15;4.80;89.20
26599;DHT22;14240;51.064;16.612;2023-02-07T13:29:43;4.80;89.60
26599;DHT22;14240;51.064;16.612;2023-02-07T13:32:24;4.80;89.70
26599;DHT22;14240;51.064;16.612;2023-02-07T13:37:35;4.70;89.90
26599;DHT22;14240;51.064;16.612;2023-02-07T13:42:42;4.60;90.00
26599;DHT22;14240;51.064;16.612;2023-02-07T13:45:37;4.60;90.10
26599;DHT22;14240;51.064;16.612;2023-02-07T13:51:23;4.40;89.90
26599;DHT22;14240;51.064;16.612;2023-02-07T13:53:58;4.40;90.10
26599;DHT22;14240;51.064;16.612;2023-02-07T13:56:33;4.30;90.20
26599;DHT22;14240;51.064;16.612;2023-02-07T14:00:04;4.20;90.30
26599;DHT22;14240;51.064;16.612;2023-02-07T14:02:33;4.30;90.50
26599;DHT22;14240;51.064;16.612;2023-02-07T14:05:16;4.30;90.90
26599;DHT22;14240;51.064;16.612;2023-02-07T14:07:52;4.20;90.60
26599;DHT22;14240;51.064;16.612;2023-02-07T14:13:33;4.20;90.70
26599;DHT22;14240;51.064;16.612;2023-02-07T14:31:48;4.00;91.10
26599;DHT22;14240;51.064;16.612;2023-02-07T14:34:15;3.90;91.10
26599;DHT22;14240;51.064;16.612;2023-02-07T14:36:45;3.90;91.20
26599;DHT22;14240;51.064;16.612;2023-02-07T14:41:45;3.80;91.40
26599;DHT22;14240;51.064;16.612;2023-02-07T14:44:31;3.80;91.40
26599;DHT22;14240;51.064;16.612;2023-02-07T14:47:00;3.80;91.50
26599;DHT22;14240;51.064;16.612;2023-02-07T14:52:02;3.70;91.60
26599;DHT22;14240;51.064;16.612;2023-02-07T14:54:49;3.60;91.60
26599;DHT22;14240;51.064;16.612;2023-02-07T15:00:03;3.50;91.60
26599;DHT22;14240;51.064;16.612;2023-02-07T15:02:38;3.50;91.70
26599;DHT22;14240;51.064;16.612;2023-02-07T15:05:25;3.50;91.80
26599;DHT22;14240;51.064;16.612;2023-02-07T15:08:12;3.40;91.80
26599;DHT22;14240;51.064;16.612;2023-02-07T15:13:44;3.30;92.00
26599;DHT22;14240;51.064;16.612;2023-02-07T15:19:18;3.20;92.20
26599;DHT22;14240;51.064;16.612;2023-02-07T15:21:45;3.10;92.40
26599;DHT22;14240;51.064;16.612;2023-02-07T15:24:39;3.10;92.50
26599;DHT22;14240;51.064;16.612;2023-02-07T15:27:18;3.00;92.60
26599;DHT22;14240;51.064;16.612;2023-02-07T15:29:55;3.00;92.80
26599;DHT22;14240;51.064;16.612;2023-02-07T15:34:57;2.90;93.20
26599;DHT22;14240;51.064;16.612;2023-02-07T15:37:25;2.90;93.40
26599;DHT22;14240;51.064;16.612;2023-02-07T15:39:55;2.80;93.40
26599;DHT22;14240;51.064;16.612;2023-02-07T15:42:22;2.80;93.50
26599;DHT22;14240;51.064;16.612;2023-02-07T15:50:00;2.70;93.80
26599;DHT22;14240;51.064;16.612;2023-02-07T15:52:48;2.70;93.70
26599;DHT22;14240;51.064;16.612;2023-02-07T15:57:54;2.60;93.90
26599;DHT22;14240;51.064;16.612;2023-02-07T16:00:25;2.60;94.10
26599;DHT22;14240;51.064;16.612;2023-02-07T16:03:11;2.60;94.40
26599;DHT22;14240;51.064;16.612;2023-02-07T16:05:38;2.50;94.50
26599;DHT22;14240;51.064;16.612;2023-02-07T16:10:51;2.40;94.60
26599;DHT22;14240;51.064;16.612;2023-02-07T16:13:19;2.40;94.70
26599;DHT22;14240;51.064;16.612;2023-02-07T16:15:58;2.30;94.50
26599;DHT22;14240;51.064;16.612;2023-02-07T16:18:41;2.30;94.50
26599;DHT22;14240;51.064;16.612;2023-02-07T16:21:20;2.20;94.50
26599;DHT22;14240;51.064;16.612;2023-02-07T16:23:49;2.20;94.70
26599;DHT22;14240;51.064;16.612;2023-02-07T16:26:19;2.20;94.90
26599;DHT22;14240;51.064;16.612;2023-02-07T16:28:46;2.20;94.90
26599;DHT22;14240;51.064;16.612;2023-02-07T16:31:12;2.20;94.90
26599;DHT22;14240;51.064;16.612;2023-02-07T16:33:38;2.10;94.90
26599;DHT22;14240;51.064;16.612;2023-02-07T16:36:04;2.10;95.10
26599;DHT22;14240;51.064;16.612;2023-02-07T16:38:31;2.10;95.30
26599;DHT22;14240;51.064;16.612;2023-02-07T16:40:57;2.10;95.50
26599;DHT22;14240;51.064;16.612;2023-02-07T16:43:35;2.10;95.80
26599;DHT22;14240;51.064;16.612;2023-02-07T16:46:02;2.10;96.10
26599;DHT22;14240;51.064;16.612;2023-02-07T16:48:28;2.10;96.30
26599;DHT22;14240;51.064;16.612;2023-02-07T16:50:54;2.00;96.40
26599;DHT22;14240;51.064;16.612;2023-02-07T16:53:19;2.00;96.40
26599;DHT22;14240;51.064;16.612;2023-02-07T16:55:45;2.00;96.40
26599;DHT22;14240;51.064;16.612;2023-02-07T16:58:21;2.00;96.50
26599;DHT22;14240;51.064;16.612;2023-02-07T17:00:48;2.00;96.50
26599;DHT22;14240;51.064;16.612;2023-02-07T17:03:14;2.00;96.60
26599;DHT22;14240;51.064;16.612;2023-02-07T17:05:40;2.00;96.70
26599;DHT22;14240;51.064;16.612;2023-02-07T17:08:06;1.90;96.60
26599;DHT22;14240;51.064;16.612;2023-02-07T17:10:33;1.90;96.60
26599;DHT22;14240;51.064;16.612;2023-02-07T17:12:59;1.90;96.70
26599;DHT22;14240;51.064;16.612;2023-02-07T17:15:25;1.90;96.90
26599;DHT22;14240;51.064;16.612;2023-02-07T17:17:50;1.90;97.00
26599;DHT22;14240;51.064;16.612;2023-02-07T17:20:25;1.90;96.90
26599;DHT22;14240;51.064;16.612;2023-02-07T17:22:52;1.90;96.90
26599;DHT22;14240;51.064;16.612;2023-02-07T17:25:20;1.80;97.00
26599;DHT22;14240;51.064;16.612;2023-02-07T17:27:46;1.80;97.30
26599;DHT22;14240;51.064;16.612;2023-02-07T17:32:40;1.60;98.40
26599;DHT22;14240;51.064;16.612;2023-02-07T17:35:06;0.80;98.50
26599;DHT22;14240;51.064;16.612;2023-02-07T17:37:32;1.50;99.20
26599;DHT22;14240;51.064;16.612;2023-02-07T17:39:58;1.40;99.70
26599;DHT22;14240;51.064;16.612;2023-02-07T17:42:23;1.30;99.90
26599;DHT22;14240;51.064;16.612;2023-02-07T17:44:49;1.20;99.90
26599;DHT22;14240;51.064;16.612;2023-02-07T17:47:15;1.20;99.90
26599;DHT22;14240;51.064;16.612;2023-02-07T17:49:41;1.10;99.90
26599;DHT22;14240;51.064;16.612;2023-02-07T17:52:06;1.00;99.90
26599;DHT22;14240;51.064;16.612;2023-02-07T17:54:33;1.00;99.90
26599;DHT22;14240;51.064;16.612;2023-02-07T17:56:59;2.10;99.90
26599;DHT22;14240;51.064;16.612;2023-02-07T17:59:25;1.00;99.90
26599;DHT22;14240;51.064;16.612;2023-02-07T18:01:51;1.00;99.90
26599;DHT22;14240;51.064;16.612;2023-02-07T18:04:16;1.00;99.90
26599;DHT22;14240;51.064;16.612;2023-02-07T18:06:42;1.00;99.90
26599;DHT22;14240;51.064;16.612;2023-02-07T18:09:17;0.90;99.90
26599;DHT22;14240;51.064;16.612;2023-02-07T18:11:43;0.90;99.90
26599;DHT22;14240;51.064;16.612;2023-02-07T18:14:09;0.90;99.90
26599;DHT22;14240;51.064;16.612;2023-02-07T18:16:35;0.90;99.90
26599;DHT22;14240;51.064;16.612;2023-02-07T18:19:01;0.90;99.90